PWSweather.com
Personal Weather Stations
Station Observations
ISYDDANM23
Felsted, AabenraaDK 6200

FelstedAabenraaDK 6200

Lat: 54.977066, Lon: 9.507192

Elevation: 135

Station Type: Davis Vantage Pro 2 Plus 24H

http://www.valkaer.dk

Latest ConditionsUpdated 2:30:01 PM GMT+01:01 Thursday, Nov 14, 2019
Currently Today's Max Today's Min Today's Average
Temperature 43.8°F6.6°C 44.2°F6.8°C 37.0°F2.8°C 39.9°F4.4°C
Dew Point 40.2°F4.6°C 40.8°F4.9°C 35.2°F1.8°C 38.0°F3.3°C
Winds 3.5 mph SE5.6 kmh SE 8.1 mph -13.0 kmh - - 3.8 mph 6.1 kmh
Wind Gusts 4.6 mph7.4 kmh 10.4 mph16.7 kmh - -
Humidity 87% 95% 86% 93%
Pressure 29.77 in1008.1 mb 29.77 in1008.1 mb 29.51 in999.3 mb -
Precipitation - 0.01 in0.3 mm - -
Hour Temp Dew Point Humidity Winds Wind Gusts Pressure Precip Precip Rate Daily Precip Total
02:30 PM 43.8°F6.6°C 40.2°F4.6°C 87% 3.5 mph SE5.6 kmh SE 4.6 mph7.4 kmh 29.77 in1008.1 mb - 0.00 in0.0 mm 0.01 in0.3 mm
02:25 PM 43.9°F6.6°C 40.3°F4.6°C 87% 3.5 mph SE5.6 kmh SE 4.6 mph7.4 kmh 29.77 in1008.1 mb - 0.00 in0.0 mm 0.01 in0.3 mm
02:20 PM 43.9°F6.6°C 40.3°F4.6°C 87% 3.5 mph SE5.6 kmh SE 3.5 mph5.6 kmh 29.77 in1008.1 mb - 0.00 in0.0 mm 0.01 in0.3 mm
02:15 PM 44.1°F6.7°C 40.5°F4.7°C 87% 3.5 mph SE5.6 kmh SE 6.9 mph11.1 kmh 29.77 in1008.1 mb - 0.00 in0.0 mm 0.01 in0.3 mm
02:10 PM 44.2°F6.8°C 40.6°F4.8°C 87% 3.5 mph SE5.6 kmh SE 4.6 mph7.4 kmh 29.77 in1008.1 mb - 0.00 in0.0 mm 0.01 in0.3 mm
02:00 PM 43.9°F6.6°C 40.3°F4.6°C 87% 3.5 mph SE5.6 kmh SE 6.9 mph11.1 kmh 29.77 in1008.1 mb - 0.00 in0.0 mm 0.01 in0.3 mm
01:55 PM 43.9°F6.6°C 40.3°F4.6°C 87% 2.3 mph E3.7 kmh E 4.6 mph7.4 kmh 29.76 in1007.8 mb - 0.00 in0.0 mm 0.01 in0.3 mm
01:50 PM 44.0°F6.7°C 40.1°F4.5°C 86% 2.3 mph SE3.7 kmh SE 4.6 mph7.4 kmh 29.76 in1007.8 mb - 0.00 in0.0 mm 0.01 in0.3 mm
01:45 PM 44.1°F6.7°C 40.2°F4.6°C 86% 2.3 mph E3.7 kmh E 4.6 mph7.4 kmh 29.76 in1007.8 mb - 0.00 in0.0 mm 0.01 in0.3 mm
01:40 PM 44.1°F6.7°C 40.2°F4.6°C 86% 3.5 mph SE5.6 kmh SE 5.8 mph9.3 kmh 29.76 in1007.8 mb - 0.00 in0.0 mm 0.01 in0.3 mm
01:35 PM 44.1°F6.7°C 40.2°F4.6°C 86% 4.6 mph SE7.4 kmh SE 5.8 mph9.3 kmh 29.76 in1007.8 mb - 0.00 in0.0 mm 0.01 in0.3 mm
01:30 PM 44.0°F6.7°C 40.4°F4.7°C 87% 2.3 mph SE3.7 kmh SE 3.5 mph5.6 kmh 29.76 in1007.8 mb - 0.00 in0.0 mm 0.01 in0.3 mm
01:25 PM 43.9°F6.6°C 40.3°F4.6°C 87% 4.6 mph SE7.4 kmh SE 6.9 mph11.1 kmh 29.76 in1007.8 mb - 0.00 in0.0 mm 0.01 in0.3 mm
01:20 PM 43.8°F6.6°C 40.5°F4.7°C 88% 3.5 mph SE5.6 kmh SE 5.8 mph9.3 kmh 29.76 in1007.8 mb - 0.00 in0.0 mm 0.01 in0.3 mm
01:15 PM 43.6°F6.4°C 40.3°F4.6°C 88% 2.3 mph SE3.7 kmh SE 3.5 mph5.6 kmh 29.77 in1008.1 mb - 0.00 in0.0 mm 0.01 in0.3 mm
01:10 PM 43.2°F6.2°C 40.2°F4.6°C 89% 4.6 mph SE7.4 kmh SE 5.8 mph9.3 kmh 29.77 in1008.1 mb - 0.00 in0.0 mm 0.01 in0.3 mm
01:00 PM 42.9°F6.1°C 39.9°F4.4°C 89% 3.5 mph SSE5.6 kmh SSE 6.9 mph11.1 kmh 29.76 in1007.8 mb - 0.00 in0.0 mm 0.01 in0.3 mm
12:55 PM 43.3°F6.3°C 40.6°F4.8°C 90% 3.5 mph SE5.6 kmh SE 6.9 mph11.1 kmh 29.76 in1007.8 mb - 0.00 in0.0 mm 0.01 in0.3 mm
12:50 PM 43.2°F6.2°C 40.7°F4.8°C 91% 3.5 mph SE5.6 kmh SE 4.6 mph7.4 kmh 29.75 in1007.5 mb - 0.00 in0.0 mm 0.01 in0.3 mm
12:45 PM 42.8°F6.0°C 40.3°F4.6°C 91% 3.5 mph SE5.6 kmh SE 4.6 mph7.4 kmh 29.75 in1007.5 mb - 0.00 in0.0 mm 0.01 in0.3 mm
12:40 PM 42.6°F5.9°C 40.7°F4.8°C 93% 3.5 mph SSE5.6 kmh SSE 4.6 mph7.4 kmh 29.76 in1007.8 mb - 0.00 in0.0 mm 0.01 in0.3 mm
12:35 PM 42.4°F5.8°C 40.8°F4.9°C 94% 3.5 mph SSE5.6 kmh SSE 8.1 mph13.0 kmh 29.76 in1007.8 mb - 0.00 in0.0 mm 0.01 in0.3 mm
12:30 PM 41.8°F5.4°C 40.2°F4.6°C 94% 3.5 mph SSE5.6 kmh SSE 5.8 mph9.3 kmh 29.76 in1007.8 mb - 0.00 in0.0 mm 0.01 in0.3 mm
12:25 PM 41.1°F5.1°C 39.5°F4.2°C 94% 3.5 mph SSE5.6 kmh SSE 4.6 mph7.4 kmh 29.75 in1007.5 mb - 0.00 in0.0 mm 0.01 in0.3 mm
12:20 PM 41.1°F5.1°C 39.5°F4.2°C 94% 4.6 mph SE7.4 kmh SE 6.9 mph11.1 kmh 29.76 in1007.8 mb - 0.00 in0.0 mm 0.01 in0.3 mm
12:10 PM 40.9°F4.9°C 39.6°F4.2°C 95% 5.8 mph SE9.3 kmh SE 6.9 mph11.1 kmh 29.75 in1007.5 mb - 0.00 in0.0 mm 0.01 in0.3 mm
12:00 PM 40.8°F4.9°C 39.5°F4.2°C 95% 4.6 mph SSE7.4 kmh SSE 6.9 mph11.1 kmh 29.76 in1007.8 mb - 0.00 in0.0 mm 0.01 in0.3 mm
11:55 AM 40.8°F4.9°C 39.5°F4.2°C 95% 2.3 mph S3.7 kmh S 3.5 mph5.6 kmh 29.76 in1007.8 mb - 0.00 in0.0 mm 0.01 in0.3 mm
11:50 AM 40.8°F4.9°C 39.5°F4.2°C 95% 3.5 mph S5.6 kmh S 8.1 mph13.0 kmh 29.76 in1007.8 mb - 0.00 in0.0 mm 0.01 in0.3 mm
11:45 AM 40.4°F4.7°C 39.1°F3.9°C 95% 4.6 mph SSE7.4 kmh SSE 8.1 mph13.0 kmh 29.76 in1007.8 mb - 0.00 in0.0 mm 0.01 in0.3 mm
11:40 AM 40.2°F4.6°C 38.9°F3.8°C 95% 3.5 mph SSE5.6 kmh SSE 5.8 mph9.3 kmh 29.76 in1007.8 mb - 0.00 in0.0 mm 0.01 in0.3 mm
11:35 AM 40.1°F4.5°C 38.5°F3.6°C 94% 4.6 mph S7.4 kmh S 6.9 mph11.1 kmh 29.76 in1007.8 mb - 0.00 in0.0 mm 0.01 in0.3 mm
11:30 AM 40.1°F4.5°C 38.5°F3.6°C 94% 5.8 mph S9.3 kmh S 9.2 mph14.8 kmh 29.75 in1007.5 mb - 0.00 in0.0 mm 0.01 in0.3 mm
11:25 AM 39.9°F4.4°C 38.6°F3.7°C 95% 3.5 mph S5.6 kmh S 5.8 mph9.3 kmh 29.75 in1007.5 mb - 0.00 in0.0 mm 0.01 in0.3 mm
11:20 AM 40.0°F4.4°C 38.6°F3.7°C 95% 4.6 mph S7.4 kmh S 6.9 mph11.1 kmh 29.75 in1007.5 mb - 0.00 in0.0 mm 0.01 in0.3 mm
11:15 AM 39.8°F4.3°C 38.5°F3.6°C 95% 2.3 mph SSE3.7 kmh SSE 3.5 mph5.6 kmh 29.74 in1007.1 mb - 0.00 in0.0 mm 0.01 in0.3 mm
11:10 AM 39.6°F4.2°C 38.3°F3.5°C 95% 4.6 mph SSE7.4 kmh SSE 8.1 mph13.0 kmh 29.74 in1007.1 mb - 0.00 in0.0 mm 0.01 in0.3 mm
11:00 AM 39.4°F4.1°C 37.9°F3.3°C 94% 3.5 mph SSE5.6 kmh SSE 5.8 mph9.3 kmh 29.74 in1007.1 mb - 0.00 in0.0 mm 0.01 in0.3 mm
10:55 AM 39.2°F4.0°C 37.9°F3.3°C 95% 4.6 mph S7.4 kmh S 8.1 mph13.0 kmh 29.74 in1007.1 mb - 0.00 in0.0 mm 0.01 in0.3 mm
10:50 AM 39.2°F4.0°C 37.9°F3.3°C 95% 3.5 mph SSE5.6 kmh SSE 5.8 mph9.3 kmh 29.74 in1007.1 mb - 0.00 in0.0 mm 0.01 in0.3 mm
10:45 AM 39.1°F3.9°C 37.8°F3.2°C 95% 5.8 mph S9.3 kmh S 8.1 mph13.0 kmh 29.73 in1006.8 mb - 0.00 in0.0 mm 0.01 in0.3 mm
10:40 AM 39.1°F3.9°C 37.8°F3.2°C 95% 4.6 mph SSW7.4 kmh SSW 4.6 mph7.4 kmh 29.73 in1006.8 mb - 0.00 in0.0 mm 0.01 in0.3 mm
10:35 AM 39.1°F3.9°C 37.5°F3.1°C 94% 3.5 mph S5.6 kmh S 4.6 mph7.4 kmh 29.72 in1006.4 mb - 0.00 in0.0 mm 0.01 in0.3 mm
10:30 AM 38.8°F3.8°C 37.2°F2.9°C 94% 3.5 mph S5.6 kmh S 4.6 mph7.4 kmh 29.72 in1006.4 mb - 0.00 in0.0 mm 0.01 in0.3 mm
10:25 AM 38.7°F3.7°C 37.1°F2.8°C 94% 4.6 mph S7.4 kmh S 8.1 mph13.0 kmh 29.72 in1006.4 mb - 0.00 in0.0 mm 0.01 in0.3 mm
10:20 AM 38.7°F3.7°C 37.1°F2.8°C 94% 4.6 mph S7.4 kmh S 6.9 mph11.1 kmh 29.72 in1006.4 mb - 0.00 in0.0 mm 0.01 in0.3 mm
10:15 AM 38.8°F3.8°C 37.2°F2.9°C 94% 5.8 mph SSE9.3 kmh SSE 9.2 mph14.8 kmh 29.71 in1006.1 mb - 0.00 in0.0 mm 0.01 in0.3 mm
10:10 AM 38.9°F3.8°C 37.6°F3.1°C 95% 3.5 mph SSE5.6 kmh SSE 5.8 mph9.3 kmh 29.71 in1006.1 mb - 0.00 in0.0 mm 0.01 in0.3 mm
10:00 AM 38.9°F3.8°C 37.3°F2.9°C 94% 3.5 mph SSW5.6 kmh SSW 4.6 mph7.4 kmh 29.71 in1006.1 mb - 0.00 in0.0 mm 0.01 in0.3 mm
09:55 AM 38.8°F3.8°C 37.2°F2.9°C 94% 4.6 mph S7.4 kmh S 6.9 mph11.1 kmh 29.70 in1005.8 mb - 0.00 in0.0 mm 0.01 in0.3 mm
09:50 AM 38.9°F3.8°C 37.6°F3.1°C 95% 4.6 mph S7.4 kmh S 9.2 mph14.8 kmh 29.70 in1005.8 mb - 0.00 in0.0 mm 0.01 in0.3 mm
09:45 AM 38.8°F3.8°C 37.2°F2.9°C 94% 3.5 mph S5.6 kmh S 3.5 mph5.6 kmh 29.70 in1005.8 mb - 0.00 in0.0 mm 0.01 in0.3 mm
09:40 AM 38.7°F3.7°C 37.1°F2.8°C 94% 4.6 mph S7.4 kmh S 10.4 mph16.7 kmh 29.70 in1005.8 mb - 0.00 in0.0 mm 0.01 in0.3 mm
09:35 AM 38.7°F3.7°C 37.1°F2.8°C 94% 3.5 mph S5.6 kmh S 4.6 mph7.4 kmh 29.70 in1005.8 mb - 0.00 in0.0 mm 0.01 in0.3 mm
09:30 AM 38.6°F3.7°C 37.0°F2.8°C 94% 3.5 mph S5.6 kmh S 4.6 mph7.4 kmh 29.69 in1005.4 mb - 0.00 in0.0 mm 0.01 in0.3 mm
09:25 AM 38.5°F3.6°C 36.9°F2.7°C 94% 2.3 mph S3.7 kmh S 3.5 mph5.6 kmh 29.69 in1005.4 mb - 0.00 in0.0 mm 0.01 in0.3 mm
09:20 AM 38.3°F3.5°C 36.8°F2.7°C 94% 3.5 mph S5.6 kmh S 4.6 mph7.4 kmh 29.69 in1005.4 mb - 0.00 in0.0 mm 0.01 in0.3 mm
09:15 AM 38.2°F3.4°C 36.6°F2.6°C 94% 4.6 mph SSW7.4 kmh SSW 5.8 mph9.3 kmh 29.68 in1005.1 mb - 0.00 in0.0 mm 0.01 in0.3 mm
09:10 AM 38.1°F3.4°C 36.6°F2.6°C 94% 4.6 mph S7.4 kmh S 10.4 mph16.7 kmh 29.68 in1005.1 mb - 0.00 in0.0 mm 0.01 in0.3 mm
09:00 AM 38.1°F3.4°C 36.5°F2.5°C 94% 2.3 mph S3.7 kmh S 3.5 mph5.6 kmh 29.68 in1005.1 mb - 0.00 in0.0 mm 0.01 in0.3 mm
08:55 AM 38.0°F3.3°C 36.4°F2.4°C 94% 3.5 mph S5.6 kmh S 6.9 mph11.1 kmh 29.68 in1005.1 mb - 0.00 in0.0 mm 0.01 in0.3 mm
08:50 AM 38.0°F3.3°C 36.4°F2.4°C 94% 5.8 mph S9.3 kmh S 6.9 mph11.1 kmh 29.68 in1005.1 mb - 0.00 in0.0 mm 0.01 in0.3 mm
08:45 AM 38.0°F3.3°C 36.4°F2.4°C 94% 6.9 mph SSW11.1 kmh SSW 9.2 mph14.8 kmh 29.67 in1004.7 mb - 0.00 in0.0 mm 0.01 in0.3 mm
08:40 AM 37.9°F3.3°C 36.3°F2.4°C 94% 4.6 mph S7.4 kmh S 5.8 mph9.3 kmh 29.67 in1004.7 mb - 0.00 in0.0 mm 0.01 in0.3 mm
08:35 AM 37.9°F3.3°C 36.4°F2.4°C 94% 5.8 mph SW9.3 kmh SW 8.1 mph13.0 kmh 29.67 in1004.7 mb - 0.00 in0.0 mm 0.01 in0.3 mm
08:30 AM 38.0°F3.3°C 36.4°F2.4°C 94% 6.9 mph S11.1 kmh S 10.4 mph16.7 kmh 29.67 in1004.7 mb - 0.00 in0.0 mm 0.01 in0.3 mm
08:25 AM 38.3°F3.5°C 36.7°F2.6°C 94% 6.9 mph S11.1 kmh S 10.4 mph16.7 kmh 29.67 in1004.7 mb - 0.00 in0.0 mm 0.01 in0.3 mm
08:20 AM 38.5°F3.6°C 36.9°F2.7°C 94% 5.8 mph SSW9.3 kmh SSW 10.4 mph16.7 kmh 29.66 in1004.4 mb - 0.00 in0.0 mm 0.01 in0.3 mm
08:15 AM 38.6°F3.7°C 37.1°F2.8°C 94% 4.6 mph SSW7.4 kmh SSW 10.4 mph16.7 kmh 29.66 in1004.4 mb - 0.00 in0.0 mm 0.01 in0.3 mm
08:10 AM 38.6°F3.7°C 37.1°F2.8°C 94% 4.6 mph SW7.4 kmh SW 5.8 mph9.3 kmh 29.66 in1004.4 mb - 0.00 in0.0 mm 0.01 in0.3 mm
08:00 AM 38.7°F3.7°C 37.1°F2.8°C 94% 5.8 mph SSW9.3 kmh SSW 8.1 mph13.0 kmh 29.66 in1004.4 mb - 0.00 in0.0 mm 0.01 in0.3 mm
07:55 AM 38.9°F3.8°C 37.3°F2.9°C 94% 8.1 mph SSW13.0 kmh SSW 10.4 mph16.7 kmh 29.65 in1004.1 mb - 0.00 in0.0 mm 0.01 in0.3 mm
07:50 AM 39.0°F3.9°C 37.4°F3.0°C 94% 4.6 mph SSW7.4 kmh SSW 9.2 mph14.8 kmh 29.64 in1003.7 mb - 0.00 in0.0 mm 0.01 in0.3 mm
07:45 AM 39.0°F3.9°C 37.4°F3.0°C 94% 4.6 mph S7.4 kmh S 4.6 mph7.4 kmh 29.64 in1003.7 mb - 0.00 in0.0 mm 0.01 in0.3 mm
07:40 AM 38.9°F3.8°C 37.3°F2.9°C 94% 5.8 mph S9.3 kmh S 5.8 mph9.3 kmh 29.64 in1003.7 mb - 0.00 in0.0 mm 0.01 in0.3 mm
07:35 AM 38.8°F3.8°C 37.3°F2.9°C 94% 4.6 mph S7.4 kmh S 6.9 mph11.1 kmh 29.64 in1003.7 mb - 0.00 in0.0 mm 0.01 in0.3 mm
07:30 AM 38.7°F3.7°C 37.2°F2.9°C 94% 3.5 mph S5.6 kmh S 6.9 mph11.1 kmh 29.64 in1003.7 mb - 0.00 in0.0 mm 0.01 in0.3 mm
07:25 AM 38.6°F3.7°C 37.0°F2.8°C 94% 3.5 mph S5.6 kmh S 4.6 mph7.4 kmh 29.64 in1003.7 mb - 0.00 in0.0 mm 0.01 in0.3 mm
07:20 AM 38.5°F3.6°C 36.9°F2.7°C 94% 4.6 mph SSW7.4 kmh SSW 6.9 mph11.1 kmh 29.64 in1003.7 mb - 0.00 in0.0 mm 0.01 in0.3 mm
07:15 AM 38.4°F3.6°C 36.8°F2.7°C 94% 3.5 mph SSW5.6 kmh SSW 3.5 mph5.6 kmh 29.63 in1003.4 mb - 0.00 in0.0 mm 0.01 in0.3 mm
07:10 AM 38.3°F3.5°C 36.7°F2.6°C 94% 5.8 mph SSW9.3 kmh SSW 8.1 mph13.0 kmh 29.63 in1003.4 mb - 0.00 in0.0 mm 0.01 in0.3 mm
07:00 AM 38.7°F3.7°C 37.1°F2.8°C 94% 6.9 mph SSW11.1 kmh SSW 8.1 mph13.0 kmh 29.63 in1003.4 mb - 0.00 in0.0 mm 0.01 in0.3 mm
06:55 AM 38.8°F3.8°C 37.2°F2.9°C 94% 4.6 mph SSW7.4 kmh SSW 6.9 mph11.1 kmh 29.62 in1003.0 mb - 0.00 in0.0 mm 0.01 in0.3 mm
06:50 AM 38.9°F3.8°C 37.3°F2.9°C 94% 4.6 mph SSW7.4 kmh SSW 6.9 mph11.1 kmh 29.62 in1003.0 mb - 0.00 in0.0 mm 0.01 in0.3 mm
06:45 AM 38.9°F3.8°C 37.3°F2.9°C 94% 4.6 mph SSW7.4 kmh SSW 5.8 mph9.3 kmh 29.62 in1003.0 mb - 0.00 in0.0 mm 0.01 in0.3 mm
06:40 AM 38.8°F3.8°C 37.2°F2.9°C 94% 4.6 mph SSW7.4 kmh SSW 6.9 mph11.1 kmh 29.61 in1002.7 mb - 0.00 in0.0 mm 0.01 in0.3 mm
06:35 AM 38.7°F3.7°C 37.1°F2.8°C 94% 3.5 mph S5.6 kmh S 4.6 mph7.4 kmh 29.61 in1002.7 mb - 0.00 in0.0 mm 0.01 in0.3 mm
06:30 AM 38.6°F3.7°C 37.0°F2.8°C 94% 4.6 mph S7.4 kmh S 5.8 mph9.3 kmh 29.61 in1002.7 mb - 0.00 in0.0 mm 0.01 in0.3 mm
06:25 AM 38.4°F3.6°C 36.9°F2.7°C 94% 3.5 mph S5.6 kmh S 4.6 mph7.4 kmh 29.61 in1002.7 mb - 0.00 in0.0 mm 0.01 in0.3 mm
06:20 AM 38.3°F3.5°C 36.7°F2.6°C 94% 2.3 mph S3.7 kmh S 5.8 mph9.3 kmh 29.61 in1002.7 mb - 0.00 in0.0 mm 0.01 in0.3 mm
06:15 AM 38.3°F3.5°C 36.7°F2.6°C 94% 3.5 mph S5.6 kmh S 4.6 mph7.4 kmh 29.60 in1002.4 mb - 0.00 in0.0 mm 0.01 in0.3 mm
06:10 AM 38.2°F3.4°C 36.6°F2.6°C 94% 3.5 mph SSW5.6 kmh SSW 4.6 mph7.4 kmh 29.60 in1002.4 mb - 0.00 in0.0 mm 0.01 in0.3 mm
06:00 AM 38.0°F3.3°C 36.4°F2.4°C 94% 5.8 mph SSW9.3 kmh SSW 5.8 mph9.3 kmh 29.60 in1002.4 mb - 0.00 in0.0 mm 0.01 in0.3 mm
05:55 AM 37.9°F3.3°C 36.3°F2.4°C 94% 2.3 mph SW3.7 kmh SW 4.6 mph7.4 kmh 29.60 in1002.4 mb - 0.00 in0.0 mm 0.01 in0.3 mm
05:50 AM 37.8°F3.2°C 36.2°F2.3°C 94% 2.3 mph SW3.7 kmh SW 3.5 mph5.6 kmh 29.60 in1002.4 mb - 0.00 in0.0 mm 0.01 in0.3 mm
05:45 AM 37.6°F3.1°C 36.1°F2.3°C 94% 3.5 mph SSW5.6 kmh SSW 3.5 mph5.6 kmh 29.59 in1002.0 mb - 0.00 in0.0 mm 0.01 in0.3 mm
05:40 AM 37.4°F3.0°C 35.8°F2.1°C 94% 3.5 mph SW5.6 kmh SW 4.6 mph7.4 kmh 29.59 in1002.0 mb - 0.00 in0.0 mm 0.01 in0.3 mm
05:35 AM 37.1°F2.8°C 35.3°F1.8°C 93% 2.3 mph SW3.7 kmh SW 2.3 mph3.7 kmh 29.59 in1002.0 mb - 0.00 in0.0 mm 0.01 in0.3 mm
05:30 AM 37.1°F2.8°C 35.2°F1.8°C 93% 2.3 mph SSW3.7 kmh SSW 3.5 mph5.6 kmh 29.59 in1002.0 mb - 0.00 in0.0 mm 0.01 in0.3 mm
05:25 AM 37.1°F2.8°C 35.3°F1.8°C 93% 2.3 mph S3.7 kmh S 3.5 mph5.6 kmh 29.59 in1002.0 mb - 0.00 in0.0 mm 0.01 in0.3 mm
05:20 AM 37.0°F2.8°C 35.2°F1.8°C 93% 2.3 mph SSW3.7 kmh SSW 3.5 mph5.6 kmh 29.58 in1001.7 mb - 0.00 in0.0 mm 0.01 in0.3 mm
05:15 AM 37.3°F2.9°C 35.7°F2.1°C 94% 2.3 mph SSW3.7 kmh SSW 3.5 mph5.6 kmh 29.58 in1001.7 mb - 0.00 in0.0 mm 0.01 in0.3 mm
05:10 AM 37.3°F2.9°C 35.5°F1.9°C 93% 2.3 mph SSW3.7 kmh SSW 3.5 mph5.6 kmh 29.58 in1001.7 mb - 0.00 in0.0 mm 0.01 in0.3 mm
05:00 AM 37.6°F3.1°C 35.8°F2.1°C 93% 3.5 mph SSW5.6 kmh SSW 3.5 mph5.6 kmh 29.58 in1001.7 mb - 0.00 in0.0 mm 0.01 in0.3 mm
04:55 AM 37.6°F3.1°C 35.8°F2.1°C 93% 3.5 mph S5.6 kmh S 3.5 mph5.6 kmh 29.57 in1001.4 mb - 0.00 in0.0 mm 0.01 in0.3 mm
04:50 AM 37.7°F3.2°C 35.9°F2.2°C 93% 2.3 mph S3.7 kmh S 3.5 mph5.6 kmh 29.57 in1001.4 mb - 0.00 in0.0 mm 0.01 in0.3 mm
04:45 AM 37.8°F3.2°C 36.0°F2.2°C 93% 2.3 mph S3.7 kmh S 3.5 mph5.6 kmh 29.57 in1001.4 mb - 0.00 in0.0 mm 0.01 in0.3 mm
04:40 AM 37.8°F3.2°C 36.0°F2.2°C 93% 3.5 mph SSW5.6 kmh SSW 3.5 mph5.6 kmh 29.57 in1001.4 mb - 0.00 in0.0 mm 0.01 in0.3 mm
04:35 AM 38.0°F3.3°C 36.2°F2.3°C 93% 2.3 mph SSW3.7 kmh SSW 3.5 mph5.6 kmh 29.57 in1001.4 mb - 0.00 in0.0 mm 0.01 in0.3 mm
04:30 AM 38.0°F3.3°C 36.2°F2.3°C 93% 2.3 mph S3.7 kmh S 4.6 mph7.4 kmh 29.57 in1001.4 mb - 0.00 in0.0 mm 0.01 in0.3 mm
04:25 AM 38.1°F3.4°C 36.3°F2.4°C 93% 2.3 mph SSW3.7 kmh SSW 4.6 mph7.4 kmh 29.57 in1001.4 mb - 0.00 in0.0 mm 0.01 in0.3 mm
04:20 AM 38.3°F3.5°C 36.5°F2.5°C 93% 3.5 mph SSW5.6 kmh SSW 4.6 mph7.4 kmh 29.57 in1001.4 mb - 0.00 in0.0 mm 0.01 in0.3 mm
04:15 AM 38.6°F3.7°C 36.7°F2.6°C 93% 3.5 mph SSW5.6 kmh SSW 3.5 mph5.6 kmh 29.57 in1001.4 mb - 0.00 in0.0 mm 0.01 in0.3 mm
04:10 AM 38.9°F3.8°C 37.0°F2.8°C 93% 2.3 mph SSW3.7 kmh SSW 3.5 mph5.6 kmh 29.57 in1001.4 mb - 0.00 in0.0 mm 0.01 in0.3 mm
04:00 AM 39.3°F4.1°C 37.4°F3.0°C 93% 3.5 mph S5.6 kmh S 4.6 mph7.4 kmh 29.57 in1001.4 mb - 0.00 in0.0 mm 0.01 in0.3 mm
03:55 AM 39.6°F4.2°C 37.7°F3.2°C 93% 4.6 mph S7.4 kmh S 4.6 mph7.4 kmh 29.57 in1001.4 mb - 0.00 in0.0 mm 0.01 in0.3 mm
03:50 AM 39.6°F4.2°C 38.1°F3.4°C 94% 4.6 mph SSW7.4 kmh SSW 5.8 mph9.3 kmh 29.57 in1001.4 mb - 0.00 in0.0 mm 0.01 in0.3 mm
03:45 AM 39.6°F4.2°C 37.7°F3.2°C 93% 4.6 mph S7.4 kmh S 4.6 mph7.4 kmh 29.57 in1001.4 mb - 0.00 in0.0 mm 0.01 in0.3 mm
03:40 AM 39.5°F4.2°C 37.7°F3.2°C 93% 4.6 mph SSW7.4 kmh SSW 5.8 mph9.3 kmh 29.56 in1001.0 mb - 0.00 in0.0 mm 0.01 in0.3 mm
03:35 AM 39.3°F4.1°C 37.7°F3.2°C 94% 3.5 mph SSW5.6 kmh SSW 4.6 mph7.4 kmh 29.56 in1001.0 mb - 0.00 in0.0 mm 0.01 in0.3 mm
03:30 AM 38.8°F3.8°C 37.0°F2.8°C 93% 2.3 mph S3.7 kmh S 8.1 mph13.0 kmh 29.57 in1001.4 mb - 0.00 in0.0 mm 0.01 in0.3 mm
03:25 AM 38.6°F3.7°C 36.8°F2.7°C 93% 3.5 mph S5.6 kmh S 6.9 mph11.1 kmh 29.56 in1001.0 mb - 0.00 in0.0 mm 0.01 in0.3 mm
03:20 AM 38.7°F3.7°C 36.9°F2.7°C 93% 2.3 mph SSW3.7 kmh SSW 3.5 mph5.6 kmh 29.56 in1001.0 mb - 0.00 in0.0 mm 0.01 in0.3 mm
03:15 AM 39.1°F3.9°C 37.3°F2.9°C 93% 2.3 mph SSW3.7 kmh SSW 3.5 mph5.6 kmh 29.56 in1001.0 mb - 0.00 in0.0 mm 0.01 in0.3 mm
03:10 AM 39.2°F4.0°C 37.3°F2.9°C 93% 3.5 mph S5.6 kmh S 4.6 mph7.4 kmh 29.56 in1001.0 mb - 0.00 in0.0 mm 0.01 in0.3 mm
03:00 AM 39.5°F4.2°C 37.7°F3.2°C 93% 3.5 mph S5.6 kmh S 4.6 mph7.4 kmh 29.56 in1001.0 mb - 0.00 in0.0 mm 0.01 in0.3 mm
02:55 AM 39.7°F4.3°C 37.8°F3.2°C 93% 2.3 mph S3.7 kmh S 3.5 mph5.6 kmh 29.56 in1001.0 mb - 0.00 in0.0 mm 0.01 in0.3 mm
02:50 AM 39.8°F4.3°C 37.9°F3.3°C 93% 2.3 mph S3.7 kmh S 3.5 mph5.6 kmh 29.56 in1001.0 mb - 0.01 in0.3 mm 0.01 in0.3 mm
02:45 AM 39.9°F4.4°C 38.1°F3.4°C 93% 2.3 mph SSW3.7 kmh SSW 3.5 mph5.6 kmh 29.56 in1001.0 mb - 0.01 in0.3 mm 0.01 in0.3 mm
02:40 AM 40.2°F4.6°C 38.3°F3.5°C 93% 2.3 mph SSW3.7 kmh SSW 3.5 mph5.6 kmh 29.55 in1000.7 mb - 0.01 in0.3 mm 0.01 in0.3 mm
02:35 AM 40.5°F4.7°C 38.6°F3.7°C 93% 2.3 mph SSW3.7 kmh SSW 3.5 mph5.6 kmh 29.56 in1001.0 mb - 0.01 in0.3 mm 0.01 in0.3 mm
02:30 AM 40.7°F4.8°C 38.8°F3.8°C 93% 2.3 mph SSW3.7 kmh SSW 3.5 mph5.6 kmh 29.55 in1000.7 mb - 0.01 in0.3 mm 0.01 in0.3 mm
02:25 AM 40.9°F4.9°C 39.0°F3.9°C 93% 1.2 mph S1.9 kmh S 3.5 mph5.6 kmh 29.56 in1001.0 mb - 0.01 in0.3 mm 0.01 in0.3 mm
02:20 AM 41.0°F5.0°C 39.1°F3.9°C 93% 2.3 mph S3.7 kmh S 3.5 mph5.6 kmh 29.55 in1000.7 mb - 0.01 in0.3 mm 0.01 in0.3 mm
02:15 AM 41.0°F5.0°C 39.1°F3.9°C 93% 3.5 mph S5.6 kmh S 3.5 mph5.6 kmh 29.55 in1000.7 mb - 0.01 in0.3 mm 0.01 in0.3 mm
02:10 AM 41.2°F5.1°C 39.3°F4.1°C 93% 3.5 mph S5.6 kmh S 9.2 mph14.8 kmh 29.55 in1000.7 mb - 0.01 in0.3 mm 0.01 in0.3 mm
02:00 AM 41.4°F5.2°C 39.5°F4.2°C 93% 4.6 mph SSE7.4 kmh SSE 5.8 mph9.3 kmh 29.55 in1000.7 mb - 0.01 in0.3 mm 0.01 in0.3 mm
01:55 AM 41.4°F5.2°C 39.5°F4.2°C 93% 3.5 mph S5.6 kmh S 6.9 mph11.1 kmh 29.55 in1000.7 mb - 0.01 in0.3 mm 0.01 in0.3 mm
01:50 AM 41.5°F5.3°C 39.6°F4.2°C 93% 3.5 mph SSW5.6 kmh SSW 4.6 mph7.4 kmh 29.54 in1000.3 mb - 0.00 in0.0 mm 0.00 in0.0 mm
01:45 AM 41.7°F5.4°C 39.8°F4.3°C 93% 3.5 mph S5.6 kmh S 4.6 mph7.4 kmh 29.54 in1000.3 mb - 0.00 in0.0 mm 0.00 in0.0 mm
01:40 AM 41.7°F5.4°C 39.8°F4.3°C 93% 3.5 mph S5.6 kmh S 6.9 mph11.1 kmh 29.54 in1000.3 mb - 0.00 in0.0 mm 0.00 in0.0 mm
01:35 AM 41.4°F5.2°C 39.5°F4.2°C 93% 3.5 mph S5.6 kmh S 5.8 mph9.3 kmh 29.54 in1000.3 mb - 0.00 in0.0 mm 0.00 in0.0 mm
01:30 AM 41.2°F5.1°C 39.4°F4.1°C 93% 3.5 mph S5.6 kmh S 5.8 mph9.3 kmh 29.54 in1000.3 mb - 0.00 in0.0 mm 0.00 in0.0 mm
01:25 AM 41.0°F5.0°C 39.1°F3.9°C 93% 3.5 mph S5.6 kmh S 3.5 mph5.6 kmh 29.54 in1000.3 mb - 0.00 in0.0 mm 0.00 in0.0 mm
01:20 AM 40.7°F4.8°C 38.8°F3.8°C 93% 3.5 mph S5.6 kmh S 4.6 mph7.4 kmh 29.54 in1000.3 mb - 0.00 in0.0 mm 0.00 in0.0 mm
01:15 AM 40.7°F4.8°C 38.8°F3.8°C 93% 3.5 mph S5.6 kmh S 5.8 mph9.3 kmh 29.54 in1000.3 mb - 0.00 in0.0 mm 0.00 in0.0 mm
01:10 AM 40.6°F4.8°C 38.7°F3.7°C 93% 3.5 mph S5.6 kmh S 4.6 mph7.4 kmh 29.53 in1000.0 mb - 0.00 in0.0 mm 0.00 in0.0 mm
01:00 AM 40.7°F4.8°C 38.8°F3.8°C 93% 4.6 mph S7.4 kmh S 5.8 mph9.3 kmh 29.53 in1000.0 mb - 0.00 in0.0 mm 0.00 in0.0 mm
12:55 AM 40.7°F4.8°C 38.8°F3.8°C 93% 3.5 mph S5.6 kmh S 3.5 mph5.6 kmh 29.53 in1000.0 mb - 0.00 in0.0 mm 0.00 in0.0 mm
12:50 AM 40.6°F4.8°C 38.8°F3.8°C 93% 3.5 mph S5.6 kmh S 5.8 mph9.3 kmh 29.53 in1000.0 mb - 0.00 in0.0 mm 0.00 in0.0 mm
12:45 AM 40.6°F4.8°C 38.7°F3.7°C 93% 3.5 mph S5.6 kmh S 4.6 mph7.4 kmh 29.53 in1000.0 mb - 0.00 in0.0 mm 0.00 in0.0 mm
12:40 AM 40.6°F4.8°C 38.7°F3.7°C 93% 3.5 mph S5.6 kmh S 4.6 mph7.4 kmh 29.52 in999.7 mb - 0.00 in0.0 mm 0.00 in0.0 mm
12:35 AM 40.6°F4.8°C 38.7°F3.7°C 93% 4.6 mph S7.4 kmh S 5.8 mph9.3 kmh 29.52 in999.7 mb - 0.00 in0.0 mm 0.00 in0.0 mm
12:30 AM 40.6°F4.8°C 38.5°F3.6°C 92% 2.3 mph S3.7 kmh S 5.8 mph9.3 kmh 29.52 in999.7 mb - 0.00 in0.0 mm 0.00 in0.0 mm
12:25 AM 40.6°F4.8°C 38.5°F3.6°C 92% 2.3 mph S3.7 kmh S 5.8 mph9.3 kmh 29.52 in999.7 mb - 0.00 in0.0 mm 0.00 in0.0 mm
12:20 AM 41.0°F5.0°C 38.9°F3.8°C 92% 4.6 mph S7.4 kmh S 8.1 mph13.0 kmh 29.52 in999.7 mb - 0.00 in0.0 mm 0.00 in0.0 mm
12:15 AM 41.2°F5.1°C 39.1°F3.9°C 92% 3.5 mph S5.6 kmh S 5.8 mph9.3 kmh 29.52 in999.7 mb - 0.00 in0.0 mm 0.00 in0.0 mm
12:10 AM 41.6°F5.3°C 39.4°F4.1°C 92% 3.5 mph SSW5.6 kmh SSW 4.6 mph7.4 kmh 29.51 in999.3 mb - 0.00 in0.0 mm 0.00 in0.0 mm
12:00 AM 41.4°F5.2°C 39.5°F4.2°C 93% 3.5 mph SSW5.6 kmh SSW 5.8 mph9.3 kmh 29.51 in999.3 mb - 0.00 in0.0 mm 0.00 in0.0 mm